Time;durP1;ratioP1;P1;durP2;ratioP2;P2;SDS_P1;SDS_P2;PMS_P1;PMS_P2;Temp;Humidity;BMP_temperature;BMP_pressure;BME280_temperature;BME280_humidity;BME280_pressure;Samples;Min_cycle;Max_cycle;Signal;HPM_P1;HPM_P2
2022/06/17 00:00:01;;;;;;;;;;;;;;;18.77;44.35059;102431.7;;;;-84
2022/06/17 00:02:02;;;;;;;5.8;3.5;;;;;;;;;;;;;-84
2022/06/17 00:05:00;;;;;;;;;;;;;;;18.76;44.61035;102443.7;;;;-85
2022/06/17 00:09:59;;;;;;;;;;;;;;;18.74;45.46387;102442.2;;;;-83
2022/06/17 00:15:17;;;;;;;;;;;;;;;18.72;45.65527;102428.3;;;;-83
2022/06/17 00:20:00;;;;;;;;;;;;;;;18.68;45.93652;102432.5;;;;-83
2022/06/17 00:25:01;;;;;;;;;;;;;;;18.64;45.77344;102430.5;;;;-83
2022/06/17 00:30:01;;;;;;;;;;;;;;;18.62;45.33691;102434.3;;;;-84
2022/06/17 00:32:01;;;;;;;6.6;3.9;;;;;;;;;;;;;-85
2022/06/17 00:35:02;;;;;;;;;;;;;;;18.57;45.62793;102425.3;;;;-83
2022/06/17 00:39:59;;;;;;;;;;;;;;;18.52;45.8623;102429.7;;;;-83
2022/06/17 00:45:03;;;;;;;;;;;;;;;18.48;46.2793;102426.8;;;;-83
2022/06/17 00:50:02;;;;;;;;;;;;;;;18.41;45.94238;102422.7;;;;-84
2022/06/17 00:55:02;;;;;;;;;;;;;;;18.36;46.01563;102432.3;;;;-82
2022/06/17 01:00:11;;;;;;;;;;;;;;;18.3;46.56738;102428.2;;;;-84
2022/06/17 01:02:03;;;;;;;6.6;4.3;;;;;;;;;;;;;-82
2022/06/17 01:04:59;;;;;;;;;;;;;;;18.25;46.59668;102427.8;;;;-83
2022/06/17 01:10:08;;;;;;;;;;;;;;;18.17;46.39551;102424.5;;;;-84
2022/06/17 01:15:01;;;;;;;;;;;;;;;18.14;46.80078;102425;;;;-86
2022/06/17 01:20:01;;;;;;;;;;;;;;;18.07;46.90723;102422.9;;;;-84
2022/06/17 01:25:02;;;;;;;;;;;;;;;18.02;47.00488;102408.9;;;;-84
2022/06/17 01:30:01;;;;;;;;;;;;;;;17.97;47.91992;102408.5;;;;-84
2022/06/17 01:32:06;;;;;;;8.2;4.1;;;;;;;;;;;;;-85
2022/06/17 01:35:00;;;;;;;;;;;;;;;17.94;47.68848;102413.5;;;;-83
2022/06/17 01:40:00;;;;;;;;;;;;;;;17.87;47.89844;102411.5;;;;-84
2022/06/17 01:45:06;;;;;;;;;;;;;;;17.82;47.68848;102405.6;;;;-84
2022/06/17 01:50:04;;;;;;;;;;;;;;;17.78;48.0127;102398.4;;;;-85
2022/06/17 01:55:02;;;;;;;;;;;;;;;17.72;48.47168;102387.3;;;;-85
2022/06/17 02:00:02;;;;;;;;;;;;;;;17.66;48.39746;102397.6;;;;-82
2022/06/17 02:02:07;;;;;;;7.8;4.6;;;;;;;;;;;;;-84
2022/06/17 02:05:02;;;;;;;;;;;;;;;17.61;49.4248;102401.8;;;;-84
2022/06/17 02:10:00;;;;;;;;;;;;;;;17.56;48.96484;102407.7;;;;-84
2022/06/17 02:15:03;;;;;;;;;;;;;;;17.55;48.29492;102412.1;;;;-82
2022/06/17 02:20:03;;;;;;;;;;;;;;;17.47;48.89844;102413.5;;;;-83
2022/06/17 02:25:03;;;;;;;;;;;;;;;17.42;49.42676;102411.5;;;;-84
2022/06/17 02:30:00;;;;;;;;;;;;;;;17.41;49.36816;102409.1;;;;-84
2022/06/17 02:32:11;;;;;;;8.2;4.8;;;;;;;;;;;;;-84
2022/06/17 02:35:03;;;;;;;;;;;;;;;17.36;49.43066;102405.2;;;;-83
2022/06/17 02:40:02;;;;;;;;;;;;;;;17.31;49.67383;102406.5;;;;-85
2022/06/17 02:45:08;;;;;;;;;;;;;;;17.26;49.36328;102405.7;;;;-84
2022/06/17 02:50:01;;;;;;;;;;;;;;;17.2;49.63965;102395.4;;;;-84
2022/06/17 02:55:04;;;;;;;;;;;;;;;17.19;49.71777;102394.9;;;;-84
2022/06/17 03:00:04;;;;;;;;;;;;;;;17.16;49.83887;102401;;;;-83
2022/06/17 03:02:18;;;;;;;8.2;4.9;;;;;;;;;;;;;-85
2022/06/17 03:05:08;;;;;;;;;;;;;;;17.12;50.24219;102398.3;;;;-86
2022/06/17 03:10:00;;;;;;;;;;;;;;;17.09;50.06934;102392.1;;;;-82
2022/06/17 03:15:04;;;;;;;;;;;;;;;17.1;50.62598;102384.4;;;;-83
2022/06/17 03:20:03;;;;;;;;;;;;;;;17.11;50.78613;102381.8;;;;-83
2022/06/17 03:25:04;;;;;;;;;;;;;;;17.12;50.58203;102387.6;;;;-84
2022/06/17 03:30:09;;;;;;;;;;;;;;;17.15;50.31445;102387.5;;;;-82
2022/06/17 03:32:17;;;;;;;7.6;5;;;;;;;;;;;;;-84
2022/06/17 03:35:02;;;;;;;;;;;;;;;17.16;50.55273;102386.5;;;;-83
2022/06/17 03:40:03;;;;;;;;;;;;;;;17.18;50.80566;102384.4;;;;-84
2022/06/17 03:45:06;;;;;;;;;;;;;;;17.21;51.15918;102379.7;;;;-82
2022/06/17 03:50:03;;;;;;;;;;;;;;;17.21;51.54492;102375;;;;-84
2022/06/17 03:54:59;;;;;;;;;;;;;;;17.27;51.26758;102388.2;;;;-86
2022/06/17 04:00:00;;;;;;;;;;;;;;;17.32;50.87695;102396.7;;;;-84
2022/06/17 04:02:16;;;;;;;8.6;5.2;;;;;;;;;;;;;-84
2022/06/17 04:05:01;;;;;;;;;;;;;;;17.36;50.8252;102406.9;;;;-83
2022/06/17 04:10:02;;;;;;;;;;;;;;;17.37;50.18066;102396.1;;;;-83
2022/06/17 04:15:04;;;;;;;;;;;;;;;17.42;50.1748;102401.4;;;;-83
2022/06/17 04:20:05;;;;;;;;;;;;;;;17.46;50.12207;102393.6;;;;-85
2022/06/17 04:25:03;;;;;;;;;;;;;;;17.5;49.96875;102395.3;;;;-81
2022/06/17 04:30:06;;;;;;;;;;;;;;;17.53;50.25586;102392.1;;;;-83
2022/06/17 04:32:20;;;;;;;8.8;5;;;;;;;;;;;;;-83
2022/06/17 04:35:01;;;;;;;;;;;;;;;17.56;50.14551;102385.2;;;;-85
2022/06/17 04:40:01;;;;;;;;;;;;;;;17.6;49.95801;102380;;;;-84
2022/06/17 04:45:00;;;;;;;;;;;;;;;17.67;50.15723;102371.8;;;;-83
2022/06/17 04:50:03;;;;;;;;;;;;;;;17.74;49.85938;102373.1;;;;-86
2022/06/17 04:55:03;;;;;;;;;;;;;;;17.81;50.26367;102373.3;;;;-83
2022/06/17 05:00:03;;;;;;;;;;;;;;;17.9;50.03613;102368.5;;;;-85
2022/06/17 05:02:21;;;;;;;7.3;4.5;;;;;;;;;;;;;-82
2022/06/17 05:05:01;;;;;;;;;;;;;;;17.98;50.27246;102366;;;;-85
2022/06/17 05:10:07;;;;;;;;;;;;;;;18.06;49.98633;102362.2;;;;-85
2022/06/17 05:15:03;;;;;;;;;;;;;;;18.17;49.7373;102358;;;;-85
2022/06/17 05:20:27;;;;;;;;;;;;;;;;;;;;;
2022/06/17 05:25:07;;;;;;;;;;;;;;;18.44;50.68848;102351.4;;;;-84
2022/06/17 05:30:01;;;;;;;;;;;;;;;18.62;50.08398;102356.5;;;;-87
2022/06/17 05:32:22;;;;;;;7.5;4.7;;;;;;;;;;;;;-83
2022/06/17 05:35:00;;;;;;;;;;;;;;;18.9;50.54688;102352;;;;-83
2022/06/17 05:40:09;;;;;;;;;;;;;;;19.14;50.1416;102345.8;;;;-85
2022/06/17 05:45:03;;;;;;;;;;;;;;;19.31;50.08105;102332.3;;;;-81
2022/06/17 05:50:00;;;;;;;;;;;;;;;19.46;49.80176;102322;;;;-85
2022/06/17 05:55:15;;;;;;;;;;;;;;;19.63;49.79785;102313.1;;;;-85
2022/06/17 06:02:38;;;;;;;8.4;4.6;;;;;;;;;;;;;-84
2022/06/17 06:05:10;;;;;;;;;;;;;;;19.99;49.67871;102321.4;;;;-84
2022/06/17 06:10:22;;;;;;;;;;;;;;;20.23;48.89453;102319.7;;;;-86
2022/06/17 06:14:59;;;;;;;;;;;;;;;20.47;48.4873;102317.8;;;;-84
2022/06/17 06:20:08;;;;;;;;;;;;;;;20.65;48.3584;102319.9;;;;-81
2022/06/17 06:25:00;;;;;;;;;;;;;;;20.79;48.5;102322.3;;;;-85
2022/06/17 06:30:01;;;;;;;;;;;;;;;20.9;48.32715;102326.1;;;;-84
2022/06/17 06:32:32;;;;;;;8.4;4.5;;;;;;;;;;;;;-84
2022/06/17 06:35:01;;;;;;;;;;;;;;;21.04;48.53906;102319.5;;;;-84
2022/06/17 06:40:09;;;;;;;;;;;;;;;21.23;48.29492;102329.6;;;;-85
2022/06/17 06:45:06;;;;;;;;;;;;;;;21.5;48.0498;102321.9;;;;-84
2022/06/17 06:50:02;;;;;;;;;;;;;;;21.91;47.59082;102320.8;;;;-83
2022/06/17 06:55:06;;;;;;;;;;;;;;;22.37;46.85742;102320.1;;;;-83
2022/06/17 07:00:03;;;;;;;;;;;;;;;22.78;45.93555;102318.2;;;;-85
2022/06/17 07:02:31;;;;;;;8.1;4.1;;;;;;;;;;;;;-84
2022/06/17 07:05:00;;;;;;;;;;;;;;;23.08;45.32227;102320.7;;;;-84
2022/06/17 07:10:19;;;;;;;;;;;;;;;23.37;44.55664;102336.7;;;;-83
2022/06/17 07:15:01;;;;;;;;;;;;;;;23.72;43.89941;102331.1;;;;-85
2022/06/17 07:20:01;;;;;;;;;;;;;;;24.22;43.00293;102327.4;;;;-83
2022/06/17 07:25:01;;;;;;;;;;;;;;;24.84;41.80176;102323.2;;;;-83
2022/06/17 07:30:02;;;;;;;;;;;;;;;25.38;40.44043;102327.1;;;;-86
2022/06/17 07:32:38;;;;;;;6;3.2;;;;;;;;;;;;;-84
2022/06/17 07:35:02;;;;;;;;;;;;;;;25.77;39.73438;102329.6;;;;-85
2022/06/17 07:40:07;;;;;;;;;;;;;;;26.13;39.05762;102328.8;;;;-83
2022/06/17 07:44:59;;;;;;;;;;;;;;;26.22;37.52246;102332;;;;-76
2022/06/17 07:49:59;;;;;;;;;;;;;;;26.5;37.70703;102338.8;;;;-73
2022/06/17 07:54:59;;;;;;;;;;;;;;;27.06;37.17188;102339.6;;;;-74
2022/06/17 07:59:59;;;;;;;;;;;;;;;27.47;36.71777;102342.8;;;;-74
2022/06/17 08:02:34;;;;;;;6.1;3.2;;;;;;;;;;;;;-75
2022/06/17 08:04:59;;;;;;;;;;;;;;;27.84;36.12988;102332.6;;;;-76
2022/06/17 08:09:59;;;;;;;;;;;;;;;28.11;35.39258;102330.8;;;;-77
2022/06/17 08:14:59;;;;;;;;;;;;;;;28.26;35.10156;102339.2;;;;-77
2022/06/17 08:19:59;;;;;;;;;;;;;;;28.42;34.76367;102332.5;;;;-77
2022/06/17 08:24:59;;;;;;;;;;;;;;;28.67;34.11621;102337.9;;;;-79
2022/06/17 08:29:59;;;;;;;;;;;;;;;28.97;34.08008;102329.8;;;;-78
2022/06/17 08:32:53;;;;;;;6;3.3;;;;;;;;;;;;;-77
2022/06/17 08:34:59;;;;;;;;;;;;;;;29.24;33.85547;102331.9;;;;-77
2022/06/17 08:40:00;;;;;;;;;;;;;;;29.52;33.31445;102320.8;;;;-76
2022/06/17 08:45:04;;;;;;;;;;;;;;;29.81;33.16016;102317.9;;;;-78
2022/06/17 08:50:07;;;;;;;;;;;;;;;29.96;32.85449;102313.7;;;;-77
2022/06/17 08:55:05;;;;;;;;;;;;;;;30.14;32.69141;102316.3;;;;-76
2022/06/17 09:00:09;;;;;;;;;;;;;;;30.37;32.22656;102336.3;;;;-78
2022/06/17 09:03:01;;;;;;;5.1;2.7;;;;;;;;;;;;;-78
2022/06/17 09:05:10;;;;;;;;;;;;;;;30.6;32.05469;102334.3;;;;-78
2022/06/17 09:10:14;;;;;;;;;;;;;;;30.83;31.53027;102330.8;;;;-78
2022/06/17 09:15:05;;;;;;;;;;;;;;;30.99;31.23535;102345.6;;;;-79
2022/06/17 09:20:02;;;;;;;;;;;;;;;31.19;31.1084;102334.7;;;;-78
2022/06/17 09:25:02;;;;;;;;;;;;;;;31.38;30.5332;102334.9;;;;-77
2022/06/17 09:30:02;;;;;;;;;;;;;;;31.48;30.52832;102328.6;;;;-79
2022/06/17 09:32:59;;;;;;;5.7;2.8;;;;;;;;;;;;;-79
2022/06/17 09:35:04;;;;;;;;;;;;;;;31.69;30.47168;102320.9;;;;-79
2022/06/17 09:40:02;;;;;;;;;;;;;;;31.89;30.33105;102311.2;;;;-77
2022/06/17 09:45:03;;;;;;;;;;;;;;;32.1;30.02734;102317.9;;;;-78
2022/06/17 09:50:01;;;;;;;;;;;;;;;32.28;29.55566;102320.1;;;;-77
2022/06/17 09:55:02;;;;;;;;;;;;;;;32.44;29.44824;102329.1;;;;-78
2022/06/17 10:00:01;;;;;;;;;;;;;;;32.72;29.69043;102326;;;;-77
2022/06/17 10:02:55;;;;;;;5.6;2.6;;;;;;;;;;;;;-77
2022/06/17 10:05:00;;;;;;;;;;;;;;;33.1;29.43164;102294.1;;;;-78
2022/06/17 10:10:07;;;;;;;;;;;;;;;33.38;29.40234;102285.9;;;;-78
2022/06/17 10:15:08;;;;;;;;;;;;;;;33.7;29.51758;102275.9;;;;-78
2022/06/17 10:20:05;;;;;;;;;;;;;;;33.96;29.08398;102275.2;;;;-78
2022/06/17 10:25:11;;;;;;;;;;;;;;;34.18;28.99219;102267.1;;;;-78
2022/06/17 10:30:06;;;;;;;;;;;;;;;34.44;28.85352;102264.8;;;;-79
2022/06/17 10:32:58;;;;;;;5.1;2.7;;;;;;;;;;;;;-79
2022/06/17 10:35:02;;;;;;;;;;;;;;;34.59;28.22266;102266.2;;;;-77
2022/06/17 10:39:59;;;;;;;;;;;;;;;34.69;28.06348;102264.9;;;;-77
2022/06/17 10:45:02;;;;;;;;;;;;;;;34.79;27.81934;102258.7;;;;-77
2022/06/17 10:50:01;;;;;;;;;;;;;;;34.97;28.1748;102265.4;;;;-78
2022/06/17 10:55:00;;;;;;;;;;;;;;;35.07;27.76563;102260.8;;;;-77
2022/06/17 10:59:59;;;;;;;;;;;;;;;35.21;28.10645;102242.9;;;;-78
2022/06/17 11:03:13;;;;;;;4.2;2.4;;;;;;;;;;;;;-78
2022/06/17 11:05:00;;;;;;;;;;;;;;;35.4;27.58398;102238.6;;;;-77
2022/06/17 11:10:00;;;;;;;;;;;;;;;35.51;27.57813;102225;;;;-79
2022/06/17 11:15:03;;;;;;;;;;;;;;;35.51;26.48438;102222.8;;;;-76
2022/06/17 11:20:02;;;;;;;;;;;;;;;35.7;26.9834;102212.5;;;;-78
2022/06/17 11:25:00;;;;;;;;;;;;;;;35.85;26.70605;102202.4;;;;-78
2022/06/17 11:30:00;;;;;;;;;;;;;;;35.92;26.5918;102191.6;;;;-78
2022/06/17 11:33:21;;;;;;;7;2.7;;;;;;;;;;;;;-77
2022/06/17 11:35:03;;;;;;;;;;;;;;;35.88;26.33887;102186.5;;;;-78
2022/06/17 11:40:13;;;;;;;;;;;;;;;36.05;26.86133;102186.8;;;;-77
2022/06/17 11:45:01;;;;;;;;;;;;;;;36.25;26.89648;102171.6;;;;-77
2022/06/17 11:50:02;;;;;;;;;;;;;;;36.33;26.81836;102185.2;;;;-77
2022/06/17 11:55:00;;;;;;;;;;;;;;;36.4;26.94043;102183.3;;;;-77
2022/06/17 12:00:03;;;;;;;;;;;;;;;36.52;26.98438;102182.6;;;;-77
2022/06/17 12:03:16;;;;;;;5.2;2.5;;;;;;;;;;;;;-77
2022/06/17 12:05:07;;;;;;;;;;;;;;;36.64;26.8125;102179.6;;;;-78
2022/06/17 12:10:03;;;;;;;;;;;;;;;36.77;26.75977;102176.8;;;;-79
2022/06/17 12:15:02;;;;;;;;;;;;;;;36.83;26.88281;102180;;;;-77
2022/06/17 12:19:59;;;;;;;;;;;;;;;36.89;26.3623;102171.3;;;;-77
2022/06/17 12:25:07;;;;;;;;;;;;;;;36.95;26.61621;102177.4;;;;-79
2022/06/17 12:30:05;;;;;;;;;;;;;;;37.07;26.75391;102170.1;;;;-77
2022/06/17 12:33:25;;;;;;;5.4;2.6;;;;;;;;;;;;;-75
2022/06/17 12:35:04;;;;;;;;;;;;;;;37.18;26.42676;102160.5;;;;-77
2022/06/17 12:40:02;;;;;;;;;;;;;;;37.26;26.32324;102163.5;;;;-77
2022/06/17 12:45:03;;;;;;;;;;;;;;;37.28;25.75195;102147.8;;;;-78
2022/06/17 12:55:05;;;;;;;;;;;;;;;37.32;25.69336;102134.6;;;;-77
2022/06/17 13:00:04;;;;;;;;;;;;;;;37.5;25.73926;102132.6;;;;-78
2022/06/17 13:03:37;;;;;;;6.3;2.6;;;;;;;;;;;;;-78
2022/06/17 13:05:08;;;;;;;;;;;;;;;37.63;25.79492;102115.1;;;;-77
2022/06/17 13:10:39;;;;;;;;;;;;;;;37.8;25.84082;102115.3;;;;-79
2022/06/17 13:15:03;;;;;;;;;;;;;;;37.84;25.6748;102112.9;;;;-81
2022/06/17 13:20:02;;;;;;;;;;;;;;;37.97;25.79004;102097;;;;-78
2022/06/17 13:25:02;;;;;;;;;;;;;;;38.12;25.96582;102095.7;;;;-78
2022/06/17 13:30:03;;;;;;;;;;;;;;;38.07;24.95801;102084.9;;;;-77
2022/06/17 13:33:38;;;;;;;5.1;2.3;;;;;;;;;;;;;-77
2022/06/17 13:35:02;;;;;;;;;;;;;;;37.94;24.80762;102086.9;;;;-78
2022/06/17 13:40:01;;;;;;;;;;;;;;;37.75;24.82129;102086.3;;;;-77
2022/06/17 13:45:04;;;;;;;;;;;;;;;37.81;24.76465;102070.3;;;;-78
2022/06/17 13:50:02;;;;;;;;;;;;;;;37.76;24.09277;102077;;;;-75
2022/06/17 13:55:04;;;;;;;;;;;;;;;37.62;24.04883;102072.5;;;;-76
2022/06/17 14:00:00;;;;;;;;;;;;;;;37.64;24.22949;102066.7;;;;-79
2022/06/17 14:03:57;;;;;;;4;1.9;;;;;;;;;;;;;-78
2022/06/17 14:05:25;;;;;;;;;;;;;;;37.52;24.34277;102060.4;;;;-78
2022/06/17 14:09:59;;;;;;;;;;;;;;;37.37;24.38281;102057.6;;;;-78
2022/06/17 14:15:07;;;;;;;;;;;;;;;37.19;24.88672;102052.7;;;;-79
2022/06/17 14:20:00;;;;;;;;;;;;;;;36.96;24.87402;102052.6;;;;-77
2022/06/17 14:25:07;;;;;;;;;;;;;;;36.69;24.72852;102049.4;;;;-77
2022/06/17 14:30:11;;;;;;;;;;;;;;;36.59;25.11719;102049.7;;;;-75
2022/06/17 14:33:58;;;;;;;3.5;1.9;;;;;;;;;;;;;-75
2022/06/17 14:35:05;;;;;;;;;;;;;;;36.51;24.69531;102051.9;;;;-77
2022/06/17 14:40:05;;;;;;;;;;;;;;;36.37;24.8418;102047.7;;;;-78
2022/06/17 14:45:09;;;;;;;;;;;;;;;36.27;24.86035;102039.6;;;;-77
2022/06/17 14:50:17;;;;;;;;;;;;;;;36.29;25.10059;102031.2;;;;-80
2022/06/17 14:55:10;;;;;;;;;;;;;;;36.35;24.81738;102034.8;;;;-77
2022/06/17 15:00:12;;;;;;;;;;;;;;;36.41;24.98828;102030.8;;;;-78
2022/06/17 15:03:56;;;;;;;3.6;1.8;;;;;;;;;;;;;-78
2022/06/17 15:05:00;;;;;;;;;;;;;;;36.32;24.61328;102029.6;;;;-77
2022/06/17 15:10:01;;;;;;;;;;;;;;;36.22;24.71484;102027.9;;;;-77
2022/06/17 15:15:07;;;;;;;;;;;;;;;36.05;25.02734;102024.2;;;;-78
2022/06/17 15:20:02;;;;;;;;;;;;;;;35.99;24.98828;102020;;;;-76
2022/06/17 15:25:06;;;;;;;;;;;;;;;35.94;25.16406;102000.4;;;;-76
2022/06/17 15:30:03;;;;;;;;;;;;;;;35.94;25.23633;101998.7;;;;-76
2022/06/17 15:34:00;;;;;;;4.2;2;;;;;;;;;;;;;-77
2022/06/17 15:34:59;;;;;;;;;;;;;;;35.95;25.22461;101996.6;;;;-77
2022/06/17 15:40:10;;;;;;;;;;;;;;;35.9;25.36523;101985.8;;;;-76
2022/06/17 15:45:04;;;;;;;;;;;;;;;35.89;25.3877;101979.6;;;;-76
2022/06/17 15:50:03;;;;;;;;;;;;;;;35.81;24.68164;101969;;;;-79
2022/06/17 15:55:01;;;;;;;;;;;;;;;35.8;25.15723;101952.4;;;;-76
2022/06/17 15:59:59;;;;;;;;;;;;;;;35.87;25.13672;101945.8;;;;-79
2022/06/17 16:04:08;;;;;;;4.2;2.1;;;;;;;;;;;;;-77
2022/06/17 16:05:07;;;;;;;;;;;;;;;35.9;25.09082;101948.8;;;;-77
2022/06/17 16:10:09;;;;;;;;;;;;;;;35.93;25.11621;101946.9;;;;-77
2022/06/17 16:15:07;;;;;;;;;;;;;;;35.92;25.15137;101939.3;;;;-78
2022/06/17 16:20:03;;;;;;;;;;;;;;;35.85;24.93359;101935.4;;;;-77
2022/06/17 16:25:04;;;;;;;;;;;;;;;35.79;25.08496;101929.5;;;;-76
2022/06/17 16:30:01;;;;;;;;;;;;;;;35.77;24.85742;101931.1;;;;-78
2022/06/17 16:34:18;;;;;;;4.7;2.2;;;;;;;;;;;;;-76
2022/06/17 16:34:59;;;;;;;;;;;;;;;35.68;25.0791;101926.7;;;;-76
2022/06/17 16:43:59;;;;;;;;;;;;;;;35.62;24.87305;101926.3;;;;-77
2022/06/17 16:45:09;;;;;;;;;;;;;;;35.44;25.00586;101917.9;;;;-77
2022/06/17 16:49:59;;;;;;;;;;;;;;;35.33;25.4043;101906.9;;;;-77
2022/06/17 16:55:00;;;;;;;;;;;;;;;35.22;25.62402;101906.9;;;;-78
2022/06/17 17:00:02;;;;;;;;;;;;;;;34.96;24.82617;101904.3;;;;-78
2022/06/17 17:04:17;;;;;;;11;2.3;;;;;;;;;;;;;-77
2022/06/17 17:04:59;;;;;;;;;;;;;;;33.75;25.35254;101905.7;;;;-77
2022/06/17 17:10:00;;;;;;;;;;;;;;;34.03;25.9248;101904.3;;;;-77
2022/06/17 17:14:59;;;;;;;;;;;;;;;34.07;26.18848;101896;;;;-76
2022/06/17 17:19:59;;;;;;;;;;;;;;;34.01;26.43359;101897;;;;-76
2022/06/17 17:25:02;;;;;;;;;;;;;;;33.93;26.7373;101889.8;;;;-76
2022/06/17 17:29:59;;;;;;;;;;;;;;;33.79;26.77637;101876.2;;;;-77
2022/06/17 17:34:23;;;;;;;4.9;2.3;;;;;;;;;;;;;-76
2022/06/17 17:34:59;;;;;;;;;;;;;;;33.61;26.84863;101874.5;;;;-76
2022/06/17 17:39:59;;;;;;;;;;;;;;;33.45;27.24219;101876.4;;;;-76
2022/06/17 17:44:59;;;;;;;;;;;;;;;33.3;27.62305;101872.5;;;;-77
2022/06/17 17:50:02;;;;;;;;;;;;;;;33.17;27.98242;101871.5;;;;-77
2022/06/17 17:54:59;;;;;;;;;;;;;;;33.07;28.37695;101868.3;;;;-77
2022/06/17 18:00:01;;;;;;;;;;;;;;;32.93;28.64063;101867.8;;;;-76
2022/06/17 18:04:29;;;;;;;5.2;2.5;;;;;;;;;;;;;-77
2022/06/17 18:04:59;;;;;;;;;;;;;;;32.78;28.90332;101868.6;;;;-80
2022/06/17 18:09:59;;;;;;;;;;;;;;;32.03;29.59863;101869.8;;;;-79
2022/06/17 18:14:59;;;;;;;;;;;;;;;30.76;32.42969;101866.9;;;;-75
2022/06/17 18:19:59;;;;;;;;;;;;;;;30.11;33.46289;101862.8;;;;-76
2022/06/17 18:24:59;;;;;;;;;;;;;;;30.27;33.14551;101865.8;;;;-76
2022/06/17 18:29:59;;;;;;;;;;;;;;;30.78;32.33789;101862.3;;;;-75
2022/06/17 18:34:37;;;;;;;5.6;2.9;;;;;;;;;;;;;-76
2022/06/17 18:34:59;;;;;;;;;;;;;;;30.93;31.88965;101858.6;;;;-74
2022/06/17 18:39:59;;;;;;;;;;;;;;;30.92;31.55957;101856.6;;;;-75
2022/06/17 18:44:59;;;;;;;;;;;;;;;30.87;31.5918;101870.4;;;;-75
2022/06/17 18:50:01;;;;;;;;;;;;;;;30.8;31.48145;101862.1;;;;-74
2022/06/17 18:55:01;;;;;;;;;;;;;;;30.7;31.31055;101860.9;;;;-75
2022/06/17 18:59:59;;;;;;;;;;;;;;;30.56;31.26465;101851.9;;;;-75
2022/06/17 19:04:39;;;;;;;5;2.8;;;;;;;;;;;;;-76
2022/06/17 19:04:59;;;;;;;;;;;;;;;30.35;31.29785;101858.2;;;;-75
2022/06/17 19:20:02;;;;;;;;;;;;;;;29.52;31.9668;101854;;;;-74
2022/06/17 19:24:59;;;;;;;;;;;;;;;29.23;32.20508;101847.8;;;;-78
2022/06/17 19:29:59;;;;;;;;;;;;;;;28.93;32.56836;101841.5;;;;-79
2022/06/17 19:34:43;;;;;;;5.9;3;;;;;;;;;;;;;-74
2022/06/17 19:34:59;;;;;;;;;;;;;;;28.67;32.81836;101844.9;;;;-77
2022/06/17 19:40:00;;;;;;;;;;;;;;;28.42;32.78906;101845.8;;;;-75
2022/06/17 19:44:59;;;;;;;;;;;;;;;28.16;33.16699;101849.1;;;;-76
2022/06/17 19:50:00;;;;;;;;;;;;;;;27.87;33.55469;101841;;;;-73
2022/06/17 19:55:00;;;;;;;;;;;;;;;27.59;33.5918;101835.9;;;;-76
2022/06/17 20:00:00;;;;;;;;;;;;;;;27.31;33.85059;101837.6;;;;-77
2022/06/17 20:04:48;;;;;;;5.4;3.3;;;;;;;;;;;;;-76
2022/06/17 20:04:59;;;;;;;;;;;;;;;27.09;34.00879;101841.1;;;;-77
2022/06/17 20:09:59;;;;;;;;;;;;;;;26.88;34.27246;101843.5;;;;-75
2022/06/17 20:15:02;;;;;;;;;;;;;;;26.67;34.50098;101843.8;;;;-76
2022/06/17 20:19:59;;;;;;;;;;;;;;;26.43;34.84277;101842.5;;;;-77
2022/06/17 20:25:02;;;;;;;;;;;;;;;26.23;35.02441;101841.9;;;;-77
2022/06/17 20:29:59;;;;;;;;;;;;;;;26.02;35.28711;101835;;;;-76
2022/06/17 20:34:52;;;;;;;9.3;4;;;;;;;;;;;;;-77
2022/06/17 20:35:03;;;;;;;;;;;;;;;25.81;35.68848;101831.1;;;;-74
2022/06/17 20:39:59;;;;;;;;;;;;;;;25.63;35.87109;101832.7;;;;-79
2022/06/17 20:50:05;;;;;;;;;;;;;;;25.33;36.28906;101829.2;;;;-77
2022/06/17 20:54:59;;;;;;;;;;;;;;;25.17;36.66992;101824.1;;;;-76
2022/06/17 20:59:59;;;;;;;;;;;;;;;25.01;36.81836;101819.1;;;;-76
2022/06/17 21:04:56;;;;;;;6.5;4;;;;;;;;;;;;;-76
2022/06/17 21:05:05;;;;;;;;;;;;;;;24.85;37.26758;101814.1;;;;-75
2022/06/17 21:09:59;;;;;;;;;;;;;;;24.71;37.40723;101809.1;;;;-77
2022/06/17 21:14:59;;;;;;;;;;;;;;;24.57;37.76563;101799.2;;;;-78
2022/06/17 21:19:59;;;;;;;;;;;;;;;24.44;37.91699;101799.2;;;;-74
2022/06/17 21:24:59;;;;;;;;;;;;;;;24.32;38.09082;101792.3;;;;-79
2022/06/17 21:29:59;;;;;;;;;;;;;;;24.21;38.11621;101797.6;;;;-74
2022/06/17 21:34:59;;;;;;;;;;;;;;;24.09;38.45313;101790.6;;;;-83
2022/06/17 21:35:11;;;;;;;6.3;3.6;;;;;;;;;;;;;-83
2022/06/17 21:40:02;;;;;;;;;;;;;;;23.96;38.58105;101790.3;;;;-85
2022/06/17 21:45:07;;;;;;;;;;;;;;;23.83;38.69727;101795;;;;-86
2022/06/17 21:50:02;;;;;;;;;;;;;;;23.69;38.96094;101789.5;;;;-82
2022/06/17 21:54:59;;;;;;;;;;;;;;;23.58;39.20605;101786.9;;;;-84
2022/06/17 22:00:03;;;;;;;;;;;;;;;23.47;39.36914;101788.6;;;;-83
2022/06/17 22:04:59;;;;;;;;;;;;;;;23.35;39.72754;101789.2;;;;-82
2022/06/17 22:05:09;;;;;;;7.6;3.6;;;;;;;;;;;;;-82
2022/06/17 22:10:00;;;;;;;;;;;;;;;23.26;39.69629;101788.5;;;;-83
2022/06/17 22:15:01;;;;;;;;;;;;;;;23.16;39.76855;101783;;;;-84
2022/06/17 22:20:01;;;;;;;;;;;;;;;23.08;39.85352;101778.2;;;;-84
2022/06/17 22:25:02;;;;;;;;;;;;;;;22.99;40.01758;101779;;;;-83
2022/06/17 22:29:59;;;;;;;;;;;;;;;22.88;40.12305;101768.4;;;;-84
2022/06/17 22:35:01;;;;;;;;;;;;;;;22.8;40.42773;101766.1;;;;-85
2022/06/17 22:35:16;;;;;;;7;3.4;;;;;;;;;;;;;-85
2022/06/17 22:39:59;;;;;;;;;;;;;;;22.71;40.62598;101763;;;;-85
2022/06/17 22:44:59;;;;;;;;;;;;;;;22.63;40.82617;101761.7;;;;-83
2022/06/17 22:50:00;;;;;;;;;;;;;;;22.58;41.0625;101757.2;;;;-84
2022/06/17 22:55:00;;;;;;;;;;;;;;;22.51;41.22852;101746.1;;;;-83
2022/06/17 23:00:01;;;;;;;;;;;;;;;22.45;41.20117;101744.5;;;;-83
2022/06/17 23:05:09;;;;;;;;;;;;;;;22.38;41.48242;101740.3;;;;-83
2022/06/17 23:05:24;;;;;;;5.3;3.5;;;;;;;;;;;;;-83
2022/06/17 23:10:05;;;;;;;;;;;;;;;22.33;41.24707;101743.4;;;;-84
2022/06/17 23:14:59;;;;;;;;;;;;;;;22.28;41.24219;101742.7;;;;-83
2022/06/17 23:20:05;;;;;;;;;;;;;;;22.22;41.36328;101733.5;;;;-84
2022/06/17 23:25:00;;;;;;;;;;;;;;;22.15;41.47266;101729.2;;;;-82
2022/06/17 23:30:00;;;;;;;;;;;;;;;22.09;41.8916;101729.4;;;;-83
2022/06/17 23:35:01;;;;;;;;;;;;;;;22.04;41.64551;101729.5;;;;-83
2022/06/17 23:35:19;;;;;;;4.9;3.3;;;;;;;;;;;;;-84
2022/06/17 23:40:02;;;;;;;;;;;;;;;21.96;41.8916;101729.4;;;;-83
2022/06/17 23:45:02;;;;;;;;;;;;;;;21.89;42.21777;101731.2;;;;-84
2022/06/17 23:50:06;;;;;;;;;;;;;;;21.82;42.87695;101730;;;;-83
2022/06/17 23:54:59;;;;;;;;;;;;;;;21.79;43.02344;101738.6;;;;-82
2022/06/17 23:59:59;;;;;;;;;;;;;;;21.73;43.88965;101734.5;;;;-82
